sensor_id;sensor_type;location;lat;lon;timestamp;P1;durP1;ratioP1;P2;durP2;ratioP2
1737;SDS011;16278;48.740;8.736;2022-07-12T00:02:10;0.70;;;0.60;;
1737;SDS011;16278;48.740;8.736;2022-07-12T00:04:36;0.50;;;0.50;;
1737;SDS011;16278;48.740;8.736;2022-07-12T00:07:02;0.60;;;0.60;;
1737;SDS011;16278;48.740;8.736;2022-07-12T00:09:28;0.60;;;0.53;;
1737;SDS011;16278;48.740;8.736;2022-07-12T00:11:54;0.53;;;0.53;;
1737;SDS011;16278;48.740;8.736;2022-07-12T00:14:20;0.63;;;0.60;;
1737;SDS011;16278;48.740;8.736;2022-07-12T00:16:46;0.70;;;0.60;;
1737;SDS011;16278;48.740;8.736;2022-07-12T00:19:12;0.90;;;0.60;;
1737;SDS011;16278;48.740;8.736;2022-07-12T00:21:38;0.70;;;0.60;;
1737;SDS011;16278;48.740;8.736;2022-07-12T00:24:04;0.50;;;0.50;;
1737;SDS011;16278;48.740;8.736;2022-07-12T00:26:30;0.70;;;0.60;;
1737;SDS011;16278;48.740;8.736;2022-07-12T00:28:56;0.53;;;0.50;;
1737;SDS011;16278;48.740;8.736;2022-07-12T00:31:23;0.60;;;0.60;;
1737;SDS011;16278;48.740;8.736;2022-07-12T00:33:49;0.50;;;0.50;;
1737;SDS011;16278;48.740;8.736;2022-07-12T00:36:15;0.60;;;0.50;;
1737;SDS011;16278;48.740;8.736;2022-07-12T00:38:41;0.80;;;0.60;;
1737;SDS011;16278;48.740;8.736;2022-07-12T00:41:07;0.60;;;0.50;;
1737;SDS011;16278;48.740;8.736;2022-07-12T00:43:33;0.70;;;0.60;;
1737;SDS011;16278;48.740;8.736;2022-07-12T00:45:59;0.70;;;0.60;;
1737;SDS011;16278;48.740;8.736;2022-07-12T00:48:25;0.87;;;0.63;;
1737;SDS011;16278;48.740;8.736;2022-07-12T00:50:51;0.80;;;0.60;;
1737;SDS011;16278;48.740;8.736;2022-07-12T00:53:17;0.60;;;0.60;;
1737;SDS011;16278;48.740;8.736;2022-07-12T00:55:48;0.60;;;0.60;;
1737;SDS011;16278;48.740;8.736;2022-07-12T00:58:14;0.53;;;0.50;;
1737;SDS011;16278;48.740;8.736;2022-07-12T01:00:40;1.03;;;0.60;;
1737;SDS011;16278;48.740;8.736;2022-07-12T01:03:06;0.63;;;0.60;;
1737;SDS011;16278;48.740;8.736;2022-07-12T01:05:32;0.70;;;0.70;;
1737;SDS011;16278;48.740;8.736;2022-07-12T01:07:58;0.60;;;0.60;;
1737;SDS011;16278;48.740;8.736;2022-07-12T01:10:24;0.60;;;0.60;;
1737;SDS011;16278;48.740;8.736;2022-07-12T01:12:50;0.60;;;0.60;;
1737;SDS011;16278;48.740;8.736;2022-07-12T01:15:17;0.70;;;0.70;;
1737;SDS011;16278;48.740;8.736;2022-07-12T01:17:44;0.80;;;0.60;;
1737;SDS011;16278;48.740;8.736;2022-07-12T01:20:10;0.60;;;0.60;;
1737;SDS011;16278;48.740;8.736;2022-07-12T01:22:39;0.67;;;0.60;;
1737;SDS011;16278;48.740;8.736;2022-07-12T01:25:08;0.70;;;0.70;;
1737;SDS011;16278;48.740;8.736;2022-07-12T01:27:34;0.87;;;0.70;;
1737;SDS011;16278;48.740;8.736;2022-07-12T01:30:01;0.80;;;0.60;;
1737;SDS011;16278;48.740;8.736;2022-07-12T01:32:27;0.60;;;0.60;;
1737;SDS011;16278;48.740;8.736;2022-07-12T01:34:56;0.60;;;0.60;;
1737;SDS011;16278;48.740;8.736;2022-07-12T01:37:23;0.70;;;0.70;;
1737;SDS011;16278;48.740;8.736;2022-07-12T01:39:50;0.70;;;0.70;;
1737;SDS011;16278;48.740;8.736;2022-07-12T01:42:17;0.63;;;0.63;;
1737;SDS011;16278;48.740;8.736;2022-07-12T01:44:43;0.70;;;0.70;;
1737;SDS011;16278;48.740;8.736;2022-07-12T01:47:09;0.70;;;0.70;;
1737;SDS011;16278;48.740;8.736;2022-07-12T01:49:35;0.73;;;0.70;;
1737;SDS011;16278;48.740;8.736;2022-07-12T01:52:01;0.60;;;0.60;;
1737;SDS011;16278;48.740;8.736;2022-07-12T01:54:27;0.80;;;0.80;;
1737;SDS011;16278;48.740;8.736;2022-07-12T01:56:54;0.83;;;0.70;;
1737;SDS011;16278;48.740;8.736;2022-07-12T01:59:20;0.60;;;0.60;;
1737;SDS011;16278;48.740;8.736;2022-07-12T02:01:47;0.80;;;0.60;;
1737;SDS011;16278;48.740;8.736;2022-07-12T02:04:16;0.70;;;0.70;;
1737;SDS011;16278;48.740;8.736;2022-07-12T02:06:43;0.70;;;0.70;;
1737;SDS011;16278;48.740;8.736;2022-07-12T02:09:10;0.70;;;0.63;;
1737;SDS011;16278;48.740;8.736;2022-07-12T02:11:36;0.70;;;0.70;;
1737;SDS011;16278;48.740;8.736;2022-07-12T02:14:02;1.10;;;0.70;;
1737;SDS011;16278;48.740;8.736;2022-07-12T02:16:28;1.00;;;0.70;;
1737;SDS011;16278;48.740;8.736;2022-07-12T02:18:54;0.63;;;0.60;;
1737;SDS011;16278;48.740;8.736;2022-07-12T02:21:20;0.80;;;0.70;;
1737;SDS011;16278;48.740;8.736;2022-07-12T02:23:46;0.80;;;0.80;;
1737;SDS011;16278;48.740;8.736;2022-07-12T02:26:12;0.80;;;0.80;;
1737;SDS011;16278;48.740;8.736;2022-07-12T02:28:38;0.60;;;0.60;;
1737;SDS011;16278;48.740;8.736;2022-07-12T02:31:04;0.70;;;0.70;;
1737;SDS011;16278;48.740;8.736;2022-07-12T02:33:30;0.70;;;0.70;;
1737;SDS011;16278;48.740;8.736;2022-07-12T02:35:56;0.80;;;0.80;;
1737;SDS011;16278;48.740;8.736;2022-07-12T02:38:22;0.80;;;0.70;;
1737;SDS011;16278;48.740;8.736;2022-07-12T02:40:48;0.70;;;0.70;;
1737;SDS011;16278;48.740;8.736;2022-07-12T02:43:23;1.60;;;0.70;;
1737;SDS011;16278;48.740;8.736;2022-07-12T02:45:50;0.73;;;0.70;;
1737;SDS011;16278;48.740;8.736;2022-07-12T02:48:16;0.80;;;0.70;;
1737;SDS011;16278;48.740;8.736;2022-07-12T02:50:42;0.80;;;0.70;;
1737;SDS011;16278;48.740;8.736;2022-07-12T02:53:09;1.27;;;0.60;;
1737;SDS011;16278;48.740;8.736;2022-07-12T02:55:35;1.37;;;0.70;;
1737;SDS011;16278;48.740;8.736;2022-07-12T02:58:02;0.70;;;0.70;;
1737;SDS011;16278;48.740;8.736;2022-07-12T03:00:30;1.00;;;0.70;;
1737;SDS011;16278;48.740;8.736;2022-07-12T03:02:56;0.70;;;0.70;;
1737;SDS011;16278;48.740;8.736;2022-07-12T03:05:22;1.07;;;0.70;;
1737;SDS011;16278;48.740;8.736;2022-07-12T03:07:48;0.97;;;0.70;;
1737;SDS011;16278;48.740;8.736;2022-07-12T03:10:14;1.10;;;0.60;;
1737;SDS011;16278;48.740;8.736;2022-07-12T03:12:41;0.70;;;0.67;;
1737;SDS011;16278;48.740;8.736;2022-07-12T03:15:07;0.80;;;0.77;;
1737;SDS011;16278;48.740;8.736;2022-07-12T03:17:33;0.80;;;0.70;;
1737;SDS011;16278;48.740;8.736;2022-07-12T03:20:00;0.80;;;0.80;;
1737;SDS011;16278;48.740;8.736;2022-07-12T03:22:26;0.70;;;0.67;;
1737;SDS011;16278;48.740;8.736;2022-07-12T03:24:52;0.70;;;0.70;;
1737;SDS011;16278;48.740;8.736;2022-07-12T03:27:18;0.63;;;0.63;;
1737;SDS011;16278;48.740;8.736;2022-07-12T03:29:44;0.90;;;0.60;;
1737;SDS011;16278;48.740;8.736;2022-07-12T03:32:10;1.07;;;0.70;;
1737;SDS011;16278;48.740;8.736;2022-07-12T03:34:37;0.60;;;0.60;;
1737;SDS011;16278;48.740;8.736;2022-07-12T03:37:03;0.70;;;0.70;;
1737;SDS011;16278;48.740;8.736;2022-07-12T03:39:29;0.70;;;0.70;;
1737;SDS011;16278;48.740;8.736;2022-07-12T03:41:55;0.93;;;0.60;;
1737;SDS011;16278;48.740;8.736;2022-07-12T03:44:21;0.67;;;0.67;;
1737;SDS011;16278;48.740;8.736;2022-07-12T03:46:47;0.63;;;0.63;;
1737;SDS011;16278;48.740;8.736;2022-07-12T03:49:13;0.63;;;0.63;;
1737;SDS011;16278;48.740;8.736;2022-07-12T03:51:39;0.60;;;0.60;;
1737;SDS011;16278;48.740;8.736;2022-07-12T03:54:06;0.70;;;0.60;;
1737;SDS011;16278;48.740;8.736;2022-07-12T03:56:35;0.87;;;0.70;;
1737;SDS011;16278;48.740;8.736;2022-07-12T03:59:20;0.80;;;0.80;;
1737;SDS011;16278;48.740;8.736;2022-07-12T04:01:46;0.90;;;0.60;;
1737;SDS011;16278;48.740;8.736;2022-07-12T04:04:12;0.70;;;0.60;;
1737;SDS011;16278;48.740;8.736;2022-07-12T04:06:38;0.70;;;0.70;;
1737;SDS011;16278;48.740;8.736;2022-07-12T04:09:05;0.70;;;0.70;;
1737;SDS011;16278;48.740;8.736;2022-07-12T04:11:31;0.70;;;0.70;;
1737;SDS011;16278;48.740;8.736;2022-07-12T04:13:57;1.07;;;0.80;;
1737;SDS011;16278;48.740;8.736;2022-07-12T04:16:23;0.73;;;0.70;;
1737;SDS011;16278;48.740;8.736;2022-07-12T04:18:49;0.67;;;0.60;;
1737;SDS011;16278;48.740;8.736;2022-07-12T04:21:15;1.07;;;0.70;;
1737;SDS011;16278;48.740;8.736;2022-07-12T04:23:41;1.07;;;0.70;;
1737;SDS011;16278;48.740;8.736;2022-07-12T04:26:07;0.83;;;0.70;;
1737;SDS011;16278;48.740;8.736;2022-07-12T04:28:34;0.60;;;0.60;;
1737;SDS011;16278;48.740;8.736;2022-07-12T04:31:00;0.73;;;0.60;;
1737;SDS011;16278;48.740;8.736;2022-07-12T04:33:27;1.00;;;0.80;;
1737;SDS011;16278;48.740;8.736;2022-07-12T04:35:53;1.37;;;0.70;;
1737;SDS011;16278;48.740;8.736;2022-07-12T04:38:19;0.60;;;0.60;;
1737;SDS011;16278;48.740;8.736;2022-07-12T04:40:44;0.93;;;0.70;;
1737;SDS011;16278;48.740;8.736;2022-07-12T04:43:10;0.70;;;0.60;;
1737;SDS011;16278;48.740;8.736;2022-07-12T04:45:36;1.00;;;0.80;;
1737;SDS011;16278;48.740;8.736;2022-07-12T04:48:02;1.10;;;0.70;;
1737;SDS011;16278;48.740;8.736;2022-07-12T04:50:28;0.80;;;0.70;;
1737;SDS011;16278;48.740;8.736;2022-07-12T04:52:54;0.70;;;0.70;;
1737;SDS011;16278;48.740;8.736;2022-07-12T04:55:20;0.87;;;0.73;;
1737;SDS011;16278;48.740;8.736;2022-07-12T04:57:46;0.70;;;0.60;;
1737;SDS011;16278;48.740;8.736;2022-07-12T05:00:13;0.70;;;0.60;;
1737;SDS011;16278;48.740;8.736;2022-07-12T05:02:39;0.70;;;0.67;;
1737;SDS011;16278;48.740;8.736;2022-07-12T05:05:05;0.70;;;0.70;;
1737;SDS011;16278;48.740;8.736;2022-07-12T05:07:31;0.60;;;0.60;;
1737;SDS011;16278;48.740;8.736;2022-07-12T05:09:57;0.63;;;0.60;;
1737;SDS011;16278;48.740;8.736;2022-07-12T05:12:23;0.60;;;0.60;;
1737;SDS011;16278;48.740;8.736;2022-07-12T05:14:49;1.00;;;0.80;;
1737;SDS011;16278;48.740;8.736;2022-07-12T05:17:15;0.80;;;0.60;;
1737;SDS011;16278;48.740;8.736;2022-07-12T05:19:41;0.77;;;0.67;;
1737;SDS011;16278;48.740;8.736;2022-07-12T05:22:07;0.67;;;0.50;;
1737;SDS011;16278;48.740;8.736;2022-07-12T05:24:33;0.63;;;0.60;;
1737;SDS011;16278;48.740;8.736;2022-07-12T05:26:59;0.70;;;0.60;;
1737;SDS011;16278;48.740;8.736;2022-07-12T05:29:25;0.50;;;0.50;;
1737;SDS011;16278;48.740;8.736;2022-07-12T05:31:54;0.50;;;0.50;;
1737;SDS011;16278;48.740;8.736;2022-07-12T05:34:20;0.60;;;0.60;;
1737;SDS011;16278;48.740;8.736;2022-07-12T05:36:46;0.67;;;0.50;;
1737;SDS011;16278;48.740;8.736;2022-07-12T05:39:12;0.60;;;0.60;;
1737;SDS011;16278;48.740;8.736;2022-07-12T05:41:38;0.90;;;0.70;;
1737;SDS011;16278;48.740;8.736;2022-07-12T05:44:04;0.63;;;0.50;;
1737;SDS011;16278;48.740;8.736;2022-07-12T05:46:30;0.60;;;0.60;;
1737;SDS011;16278;48.740;8.736;2022-07-12T05:48:56;0.57;;;0.57;;
1737;SDS011;16278;48.740;8.736;2022-07-12T05:51:22;0.60;;;0.60;;
1737;SDS011;16278;48.740;8.736;2022-07-12T05:54:06;0.50;;;0.50;;
1737;SDS011;16278;48.740;8.736;2022-07-12T05:56:32;0.70;;;0.60;;
1737;SDS011;16278;48.740;8.736;2022-07-12T05:58:58;0.60;;;0.50;;
1737;SDS011;16278;48.740;8.736;2022-07-12T06:01:24;0.63;;;0.50;;
1737;SDS011;16278;48.740;8.736;2022-07-12T06:03:50;1.10;;;0.50;;
1737;SDS011;16278;48.740;8.736;2022-07-12T06:06:16;1.70;;;0.53;;
1737;SDS011;16278;48.740;8.736;2022-07-12T06:08:42;0.60;;;0.40;;
1737;SDS011;16278;48.740;8.736;2022-07-12T06:11:08;0.50;;;0.40;;
1737;SDS011;16278;48.740;8.736;2022-07-12T06:13:34;0.50;;;0.50;;
1737;SDS011;16278;48.740;8.736;2022-07-12T06:16:00;0.40;;;0.40;;
1737;SDS011;16278;48.740;8.736;2022-07-12T06:18:26;0.40;;;0.40;;
1737;SDS011;16278;48.740;8.736;2022-07-12T06:20:53;0.57;;;0.50;;
1737;SDS011;16278;48.740;8.736;2022-07-12T06:23:19;0.53;;;0.50;;
1737;SDS011;16278;48.740;8.736;2022-07-12T06:25:45;0.50;;;0.47;;
1737;SDS011;16278;48.740;8.736;2022-07-12T06:28:11;0.50;;;0.40;;
1737;SDS011;16278;48.740;8.736;2022-07-12T06:30:37;0.40;;;0.40;;
1737;SDS011;16278;48.740;8.736;2022-07-12T06:33:03;0.50;;;0.40;;
1737;SDS011;16278;48.740;8.736;2022-07-12T06:35:30;0.40;;;0.40;;
1737;SDS011;16278;48.740;8.736;2022-07-12T06:37:56;0.53;;;0.43;;
1737;SDS011;16278;48.740;8.736;2022-07-12T06:40:22;0.50;;;0.47;;
1737;SDS011;16278;48.740;8.736;2022-07-12T06:42:48;0.83;;;0.40;;
1737;SDS011;16278;48.740;8.736;2022-07-12T06:45:15;0.47;;;0.30;;
1737;SDS011;16278;48.740;8.736;2022-07-12T06:47:41;0.40;;;0.23;;
1737;SDS011;16278;48.740;8.736;2022-07-12T06:50:07;0.50;;;0.30;;
1737;SDS011;16278;48.740;8.736;2022-07-12T06:52:33;0.30;;;0.20;;
1737;SDS011;16278;48.740;8.736;2022-07-12T06:54:59;0.57;;;0.33;;
1737;SDS011;16278;48.740;8.736;2022-07-12T06:57:25;0.30;;;0.20;;
1737;SDS011;16278;48.740;8.736;2022-07-12T06:59:55;0.30;;;0.30;;
1737;SDS011;16278;48.740;8.736;2022-07-12T07:02:21;0.40;;;0.30;;
1737;SDS011;16278;48.740;8.736;2022-07-12T07:04:48;0.30;;;0.20;;
1737;SDS011;16278;48.740;8.736;2022-07-12T07:07:14;0.40;;;0.20;;
1737;SDS011;16278;48.740;8.736;2022-07-12T07:09:40;0.20;;;0.10;;
1737;SDS011;16278;48.740;8.736;2022-07-12T07:12:06;0.20;;;0.20;;
1737;SDS011;16278;48.740;8.736;2022-07-12T07:14:32;0.20;;;0.20;;
1737;SDS011;16278;48.740;8.736;2022-07-12T07:16:59;0.20;;;0.20;;
1737;SDS011;16278;48.740;8.736;2022-07-12T07:19:25;0.20;;;0.20;;
1737;SDS011;16278;48.740;8.736;2022-07-12T07:21:52;0.40;;;0.20;;
1737;SDS011;16278;48.740;8.736;2022-07-12T07:24:19;0.30;;;0.20;;
1737;SDS011;16278;48.740;8.736;2022-07-12T07:26:45;0.87;;;0.20;;
1737;SDS011;16278;48.740;8.736;2022-07-12T07:29:11;0.50;;;0.10;;
1737;SDS011;16278;48.740;8.736;2022-07-12T07:31:56;0.40;;;0.10;;
1737;SDS011;16278;48.740;8.736;2022-07-12T07:34:22;0.20;;;0.10;;
1737;SDS011;16278;48.740;8.736;2022-07-12T07:36:49;0.20;;;0.10;;
1737;SDS011;16278;48.740;8.736;2022-07-12T07:39:15;0.20;;;0.10;;
1737;SDS011;16278;48.740;8.736;2022-07-12T07:41:41;0.47;;;0.10;;
1737;SDS011;16278;48.740;8.736;2022-07-12T07:44:07;0.30;;;0.20;;
1737;SDS011;16278;48.740;8.736;2022-07-12T07:46:33;0.23;;;0.10;;
1737;SDS011;16278;48.740;8.736;2022-07-12T07:48:59;0.30;;;0.10;;
1737;SDS011;16278;48.740;8.736;2022-07-12T07:51:25;0.20;;;0.10;;
1737;SDS011;16278;48.740;8.736;2022-07-12T07:53:51;0.70;;;0.10;;
1737;SDS011;16278;48.740;8.736;2022-07-12T07:56:17;0.23;;;0.10;;
1737;SDS011;16278;48.740;8.736;2022-07-12T07:58:43;3.60;;;0.20;;
1737;SDS011;16278;48.740;8.736;2022-07-12T08:01:09;0.30;;;0.10;;
1737;SDS011;16278;48.740;8.736;2022-07-12T08:03:35;0.20;;;0.10;;
1737;SDS011;16278;48.740;8.736;2022-07-12T08:06:00;0.30;;;0.10;;
1737;SDS011;16278;48.740;8.736;2022-07-12T08:08:27;0.20;;;0.10;;
1737;SDS011;16278;48.740;8.736;2022-07-12T08:10:56;0.20;;;0.10;;
1737;SDS011;16278;48.740;8.736;2022-07-12T08:13:22;0.20;;;0.10;;
1737;SDS011;16278;48.740;8.736;2022-07-12T08:15:48;0.20;;;0.20;;
1737;SDS011;16278;48.740;8.736;2022-07-12T08:18:14;0.20;;;0.10;;
1737;SDS011;16278;48.740;8.736;2022-07-12T08:20:40;0.30;;;0.20;;
1737;SDS011;16278;48.740;8.736;2022-07-12T08:23:06;0.30;;;0.20;;
1737;SDS011;16278;48.740;8.736;2022-07-12T08:25:32;0.40;;;0.20;;
1737;SDS011;16278;48.740;8.736;2022-07-12T08:27:58;0.20;;;0.20;;
1737;SDS011;16278;48.740;8.736;2022-07-12T08:30:24;0.23;;;0.20;;
1737;SDS011;16278;48.740;8.736;2022-07-12T08:32:50;0.30;;;0.20;;
1737;SDS011;16278;48.740;8.736;2022-07-12T08:35:16;0.20;;;0.10;;
1737;SDS011;16278;48.740;8.736;2022-07-12T08:37:42;0.20;;;0.10;;
1737;SDS011;16278;48.740;8.736;2022-07-12T08:40:08;0.40;;;0.20;;
1737;SDS011;16278;48.740;8.736;2022-07-12T08:42:35;0.30;;;0.20;;
1737;SDS011;16278;48.740;8.736;2022-07-12T08:45:01;0.40;;;0.20;;
1737;SDS011;16278;48.740;8.736;2022-07-12T08:47:27;0.30;;;0.20;;
1737;SDS011;16278;48.740;8.736;2022-07-12T08:50:15;0.27;;;0.20;;
1737;SDS011;16278;48.740;8.736;2022-07-12T08:52:40;0.30;;;0.20;;
1737;SDS011;16278;48.740;8.736;2022-07-12T08:57:43;0.23;;;0.13;;
1737;SDS011;16278;48.740;8.736;2022-07-12T09:00:09;0.33;;;0.20;;
1737;SDS011;16278;48.740;8.736;2022-07-12T09:02:54;0.20;;;0.10;;
1737;SDS011;16278;48.740;8.736;2022-07-12T09:05:24;0.40;;;0.20;;
1737;SDS011;16278;48.740;8.736;2022-07-12T09:07:51;0.20;;;0.10;;
1737;SDS011;16278;48.740;8.736;2022-07-12T09:10:17;0.30;;;0.10;;
1737;SDS011;16278;48.740;8.736;2022-07-12T09:12:44;0.23;;;0.20;;
1737;SDS011;16278;48.740;8.736;2022-07-12T09:17:37;0.30;;;0.10;;
1737;SDS011;16278;48.740;8.736;2022-07-12T09:20:04;0.30;;;0.20;;
1737;SDS011;16278;48.740;8.736;2022-07-12T09:22:30;0.30;;;0.20;;
1737;SDS011;16278;48.740;8.736;2022-07-12T09:24:56;0.50;;;0.20;;
1737;SDS011;16278;48.740;8.736;2022-07-12T09:27:25;0.60;;;0.20;;
1737;SDS011;16278;48.740;8.736;2022-07-12T09:29:51;1.23;;;0.20;;
1737;SDS011;16278;48.740;8.736;2022-07-12T09:32:17;0.30;;;0.20;;
1737;SDS011;16278;48.740;8.736;2022-07-12T09:35:02;1.50;;;0.20;;
1737;SDS011;16278;48.740;8.736;2022-07-12T09:37:47;0.30;;;0.10;;
1737;SDS011;16278;48.740;8.736;2022-07-12T09:40:14;0.30;;;0.17;;
1737;SDS011;16278;48.740;8.736;2022-07-12T09:42:40;0.50;;;0.20;;
1737;SDS011;16278;48.740;8.736;2022-07-12T09:45:09;0.20;;;0.10;;
1737;SDS011;16278;48.740;8.736;2022-07-12T09:47:36;0.50;;;0.20;;
1737;SDS011;16278;48.740;8.736;2022-07-12T09:50:03;3.80;;;0.20;;
1737;SDS011;16278;48.740;8.736;2022-07-12T09:52:29;0.40;;;0.20;;
1737;SDS011;16278;48.740;8.736;2022-07-12T09:54:55;2.03;;;0.20;;
1737;SDS011;16278;48.740;8.736;2022-07-12T09:57:25;0.30;;;0.20;;
1737;SDS011;16278;48.740;8.736;2022-07-12T09:59:51;0.27;;;0.20;;
1737;SDS011;16278;48.740;8.736;2022-07-12T10:02:18;0.20;;;0.10;;
1737;SDS011;16278;48.740;8.736;2022-07-12T10:04:46;0.20;;;0.10;;
1737;SDS011;16278;48.740;8.736;2022-07-12T10:07:12;0.23;;;0.20;;
1737;SDS011;16278;48.740;8.736;2022-07-12T10:09:38;0.20;;;0.10;;
1737;SDS011;16278;48.740;8.736;2022-07-12T10:12:05;0.30;;;0.20;;
1737;SDS011;16278;48.740;8.736;2022-07-12T10:14:31;0.20;;;0.10;;
1737;SDS011;16278;48.740;8.736;2022-07-12T10:16:58;0.47;;;0.20;;
1737;SDS011;16278;48.740;8.736;2022-07-12T10:21:51;0.37;;;0.10;;
1737;SDS011;16278;48.740;8.736;2022-07-12T10:26:59;1.13;;;0.13;;
1737;SDS011;16278;48.740;8.736;2022-07-12T10:29:25;0.20;;;0.10;;
1737;SDS011;16278;48.740;8.736;2022-07-12T10:31:52;0.30;;;0.10;;
1737;SDS011;16278;48.740;8.736;2022-07-12T10:34:24;0.20;;;0.10;;
1737;SDS011;16278;48.740;8.736;2022-07-12T10:47:01;0.30;;;0.10;;
1737;SDS011;16278;48.740;8.736;2022-07-12T10:49:28;0.43;;;0.17;;
1737;SDS011;16278;48.740;8.736;2022-07-12T10:54:36;0.50;;;0.10;;
1737;SDS011;16278;48.740;8.736;2022-07-12T10:57:02;0.30;;;0.10;;
1737;SDS011;16278;48.740;8.736;2022-07-12T10:59:29;0.20;;;0.10;;
1737;SDS011;16278;48.740;8.736;2022-07-12T11:01:55;0.20;;;0.10;;
1737;SDS011;16278;48.740;8.736;2022-07-12T11:04:22;0.13;;;0.10;;
1737;SDS011;16278;48.740;8.736;2022-07-12T11:06:48;0.27;;;0.10;;
1737;SDS011;16278;48.740;8.736;2022-07-12T11:09:17;0.20;;;0.10;;
1737;SDS011;16278;48.740;8.736;2022-07-12T11:11:44;0.30;;;0.10;;
1737;SDS011;16278;48.740;8.736;2022-07-12T11:14:11;0.40;;;0.10;;
1737;SDS011;16278;48.740;8.736;2022-07-12T11:16:44;0.30;;;0.10;;
1737;SDS011;16278;48.740;8.736;2022-07-12T11:19:10;0.20;;;0.10;;
1737;SDS011;16278;48.740;8.736;2022-07-12T11:21:36;0.20;;;0.10;;
1737;SDS011;16278;48.740;8.736;2022-07-12T11:24:02;0.23;;;0.10;;
1737;SDS011;16278;48.740;8.736;2022-07-12T11:26:40;0.20;;;0.10;;
1737;SDS011;16278;48.740;8.736;2022-07-12T11:29:06;0.20;;;0.10;;
1737;SDS011;16278;48.740;8.736;2022-07-12T11:31:32;0.20;;;0.10;;
1737;SDS011;16278;48.740;8.736;2022-07-12T11:33:58;0.27;;;0.10;;
1737;SDS011;16278;48.740;8.736;2022-07-12T11:36:25;0.87;;;0.10;;
1737;SDS011;16278;48.740;8.736;2022-07-12T11:38:52;0.20;;;0.10;;
1737;SDS011;16278;48.740;8.736;2022-07-12T11:41:18;0.20;;;0.10;;
1737;SDS011;16278;48.740;8.736;2022-07-12T11:43:45;0.63;;;0.10;;
1737;SDS011;16278;48.740;8.736;2022-07-12T11:46:12;0.20;;;0.10;;
1737;SDS011;16278;48.740;8.736;2022-07-12T11:48:39;0.40;;;0.10;;
1737;SDS011;16278;48.740;8.736;2022-07-12T11:51:07;0.70;;;0.10;;
1737;SDS011;16278;48.740;8.736;2022-07-12T11:53:33;0.20;;;0.10;;
1737;SDS011;16278;48.740;8.736;2022-07-12T11:56:00;0.37;;;0.10;;
1737;SDS011;16278;48.740;8.736;2022-07-12T11:58:27;0.20;;;0.10;;
1737;SDS011;16278;48.740;8.736;2022-07-12T12:00:54;0.20;;;0.10;;
1737;SDS011;16278;48.740;8.736;2022-07-12T12:03:20;0.20;;;0.10;;
1737;SDS011;16278;48.740;8.736;2022-07-12T12:05:47;0.20;;;0.10;;
1737;SDS011;16278;48.740;8.736;2022-07-12T12:08:14;0.50;;;0.10;;
1737;SDS011;16278;48.740;8.736;2022-07-12T12:10:40;0.83;;;0.10;;
1737;SDS011;16278;48.740;8.736;2022-07-12T12:13:14;0.10;;;0.10;;
1737;SDS011;16278;48.740;8.736;2022-07-12T12:15:41;0.20;;;0.10;;
1737;SDS011;16278;48.740;8.736;2022-07-12T12:18:07;0.20;;;0.10;;
1737;SDS011;16278;48.740;8.736;2022-07-12T12:20:34;0.20;;;0.10;;
1737;SDS011;16278;48.740;8.736;2022-07-12T12:23:01;0.23;;;0.10;;
1737;SDS011;16278;48.740;8.736;2022-07-12T12:25:28;0.23;;;0.10;;
1737;SDS011;16278;48.740;8.736;2022-07-12T12:30:25;0.20;;;0.10;;
1737;SDS011;16278;48.740;8.736;2022-07-12T12:32:52;0.47;;;0.10;;
1737;SDS011;16278;48.740;8.736;2022-07-12T12:35:20;0.20;;;0.10;;
1737;SDS011;16278;48.740;8.736;2022-07-12T12:37:50;0.30;;;0.10;;
1737;SDS011;16278;48.740;8.736;2022-07-12T12:40:20;0.40;;;0.10;;
1737;SDS011;16278;48.740;8.736;2022-07-12T12:42:46;0.20;;;0.10;;
1737;SDS011;16278;48.740;8.736;2022-07-12T12:45:19;0.50;;;0.10;;
1737;SDS011;16278;48.740;8.736;2022-07-12T12:48:19;0.20;;;0.10;;
1737;SDS011;16278;48.740;8.736;2022-07-12T12:50:45;0.20;;;0.10;;
1737;SDS011;16278;48.740;8.736;2022-07-12T12:55:37;0.20;;;0.10;;
1737;SDS011;16278;48.740;8.736;2022-07-12T12:58:03;0.20;;;0.10;;
1737;SDS011;16278;48.740;8.736;2022-07-12T13:00:30;0.20;;;0.10;;
1737;SDS011;16278;48.740;8.736;2022-07-12T13:02:59;0.47;;;0.10;;
1737;SDS011;16278;48.740;8.736;2022-07-12T13:05:28;0.50;;;0.10;;
1737;SDS011;16278;48.740;8.736;2022-07-12T13:07:55;0.20;;;0.10;;
1737;SDS011;16278;48.740;8.736;2022-07-12T13:10:21;0.67;;;0.10;;
1737;SDS011;16278;48.740;8.736;2022-07-12T13:12:47;0.20;;;0.10;;
1737;SDS011;16278;48.740;8.736;2022-07-12T13:15:14;0.20;;;0.10;;
1737;SDS011;16278;48.740;8.736;2022-07-12T13:17:40;0.30;;;0.10;;
1737;SDS011;16278;48.740;8.736;2022-07-12T13:20:06;0.20;;;0.10;;
1737;SDS011;16278;48.740;8.736;2022-07-12T13:22:33;0.47;;;0.10;;
1737;SDS011;16278;48.740;8.736;2022-07-12T13:24:59;0.40;;;0.10;;
1737;SDS011;16278;48.740;8.736;2022-07-12T13:27:25;0.40;;;0.10;;
1737;SDS011;16278;48.740;8.736;2022-07-12T13:29:52;0.43;;;0.10;;
1737;SDS011;16278;48.740;8.736;2022-07-12T13:32:17;0.20;;;0.10;;
1737;SDS011;16278;48.740;8.736;2022-07-12T13:34:46;0.30;;;0.10;;
1737;SDS011;16278;48.740;8.736;2022-07-12T13:37:12;0.20;;;0.10;;
1737;SDS011;16278;48.740;8.736;2022-07-12T13:39:39;0.33;;;0.10;;
1737;SDS011;16278;48.740;8.736;2022-07-12T13:42:23;0.20;;;0.10;;
1737;SDS011;16278;48.740;8.736;2022-07-12T13:44:52;0.20;;;0.10;;
1737;SDS011;16278;48.740;8.736;2022-07-12T13:47:19;0.30;;;0.10;;
1737;SDS011;16278;48.740;8.736;2022-07-12T13:49:46;0.30;;;0.10;;
1737;SDS011;16278;48.740;8.736;2022-07-12T13:52:12;0.20;;;0.10;;
1737;SDS011;16278;48.740;8.736;2022-07-12T13:54:38;0.27;;;0.10;;
1737;SDS011;16278;48.740;8.736;2022-07-12T13:57:04;0.30;;;0.10;;
1737;SDS011;16278;48.740;8.736;2022-07-12T13:59:30;0.30;;;0.10;;
1737;SDS011;16278;48.740;8.736;2022-07-12T14:01:56;0.30;;;0.10;;
1737;SDS011;16278;48.740;8.736;2022-07-12T14:04:22;0.20;;;0.10;;
1737;SDS011;16278;48.740;8.736;2022-07-12T14:06:48;0.20;;;0.10;;
1737;SDS011;16278;48.740;8.736;2022-07-12T14:09:14;0.20;;;0.10;;
1737;SDS011;16278;48.740;8.736;2022-07-12T14:11:41;0.20;;;0.10;;
1737;SDS011;16278;48.740;8.736;2022-07-12T14:14:07;0.27;;;0.10;;
1737;SDS011;16278;48.740;8.736;2022-07-12T14:16:33;0.20;;;0.10;;
1737;SDS011;16278;48.740;8.736;2022-07-12T14:18:59;0.70;;;0.10;;
1737;SDS011;16278;48.740;8.736;2022-07-12T14:21:26;0.20;;;0.10;;
1737;SDS011;16278;48.740;8.736;2022-07-12T14:23:58;0.20;;;0.10;;
1737;SDS011;16278;48.740;8.736;2022-07-12T14:26:27;0.20;;;0.10;;
1737;SDS011;16278;48.740;8.736;2022-07-12T14:28:53;0.20;;;0.10;;
1737;SDS011;16278;48.740;8.736;2022-07-12T14:31:19;0.80;;;0.10;;
1737;SDS011;16278;48.740;8.736;2022-07-12T14:33:45;0.30;;;0.10;;
1737;SDS011;16278;48.740;8.736;2022-07-12T14:36:11;0.20;;;0.10;;
1737;SDS011;16278;48.740;8.736;2022-07-12T14:38:37;0.30;;;0.10;;
1737;SDS011;16278;48.740;8.736;2022-07-12T14:41:03;0.53;;;0.10;;
1737;SDS011;16278;48.740;8.736;2022-07-12T14:43:29;0.30;;;0.10;;
1737;SDS011;16278;48.740;8.736;2022-07-12T14:45:55;1.03;;;0.10;;
1737;SDS011;16278;48.740;8.736;2022-07-12T14:48:21;0.23;;;0.10;;
1737;SDS011;16278;48.740;8.736;2022-07-12T14:50:47;0.20;;;0.10;;
1737;SDS011;16278;48.740;8.736;2022-07-12T14:53:13;0.30;;;0.10;;
1737;SDS011;16278;48.740;8.736;2022-07-12T14:55:39;0.30;;;0.10;;
1737;SDS011;16278;48.740;8.736;2022-07-12T14:58:06;0.23;;;0.10;;
1737;SDS011;16278;48.740;8.736;2022-07-12T15:00:34;0.20;;;0.10;;
1737;SDS011;16278;48.740;8.736;2022-07-12T15:03:00;0.30;;;0.10;;
1737;SDS011;16278;48.740;8.736;2022-07-12T15:05:26;0.20;;;0.10;;
1737;SDS011;16278;48.740;8.736;2022-07-12T15:07:52;0.20;;;0.10;;
1737;SDS011;16278;48.740;8.736;2022-07-12T15:10:19;0.20;;;0.10;;
1737;SDS011;16278;48.740;8.736;2022-07-12T15:12:45;0.20;;;0.10;;
1737;SDS011;16278;48.740;8.736;2022-07-12T15:15:11;0.63;;;0.10;;
1737;SDS011;16278;48.740;8.736;2022-07-12T15:17:37;0.30;;;0.10;;
1737;SDS011;16278;48.740;8.736;2022-07-12T15:20:03;0.77;;;0.57;;
1737;SDS011;16278;48.740;8.736;2022-07-12T15:22:30;0.10;;;0.10;;
1737;SDS011;16278;48.740;8.736;2022-07-12T15:24:56;0.20;;;0.10;;
1737;SDS011;16278;48.740;8.736;2022-07-12T15:27:22;0.20;;;0.10;;